createdAt,value
2023-01-23T00:01:40.184Z,94929.06
2023-01-23T00:04:08.172Z,94922.34
2023-01-23T00:06:36.121Z,94925.03
2023-01-23T00:09:04.159Z,94924.31
2023-01-23T00:11:32.173Z,94928.03
2023-01-23T00:14:03.021Z,94935.50
2023-01-23T00:16:32.588Z,94936.81
2023-01-23T00:19:00.543Z,94937.22
2023-01-23T00:21:30.509Z,94942.38
2023-01-23T00:24:01.507Z,94942.63
2023-01-23T00:26:33.271Z,94934.69
2023-01-23T00:29:02.744Z,94936.00
2023-01-23T00:31:33.526Z,94943.63
2023-01-23T00:34:03.477Z,94936.69
2023-01-23T00:36:33.225Z,94937.53
2023-01-23T00:39:01.199Z,94940.13
2023-01-23T00:41:29.436Z,94938.94
2023-01-23T00:43:57.507Z,94943.00
2023-01-23T00:46:26.968Z,94946.38
2023-01-23T00:48:54.901Z,94949.63
2023-01-23T00:51:23.265Z,94961.00
2023-01-23T00:53:51.438Z,94957.09
2023-01-23T00:56:19.323Z,94957.84
2023-01-23T00:58:47.274Z,94963.19
2023-01-23T01:01:16.142Z,94961.28
2023-01-23T01:03:46.169Z,94951.38
2023-01-23T01:06:14.159Z,94955.09
2023-01-23T01:08:42.290Z,94955.16
2023-01-23T01:11:10.156Z,94949.31
2023-01-23T01:13:38.504Z,94960.28
2023-01-23T01:16:07.699Z,94956.69
2023-01-23T01:18:35.941Z,94951.66
2023-01-23T01:21:09.001Z,94962.84
2023-01-23T01:23:37.233Z,94967.50
2023-01-23T01:26:06.593Z,94959.69
2023-01-23T01:28:36.058Z,94967.50
2023-01-23T01:31:07.327Z,94980.13
2023-01-23T01:33:35.605Z,94979.59
2023-01-23T01:36:03.837Z,94981.06
2023-01-23T01:38:33.086Z,94977.53
2023-01-23T01:41:01.056Z,94988.56
2023-01-23T01:43:29.537Z,94984.25
2023-01-23T01:46:28.002Z,94979.25
2023-01-23T01:49:06.800Z,94978.56
2023-01-23T01:51:38.424Z,94985.38
2023-01-23T01:54:15.313Z,94973.66
2023-01-23T01:56:49.468Z,94972.91
2023-01-23T01:59:18.728Z,94981.03
2023-01-23T02:01:48.969Z,94976.66
2023-01-23T02:04:17.068Z,94982.34
2023-01-23T02:06:45.282Z,94973.63
2023-01-23T02:09:20.018Z,94973.91
2023-01-23T02:11:48.384Z,94984.88
2023-01-23T02:14:16.308Z,94975.25
2023-01-23T02:16:50.511Z,94972.81
2023-01-23T02:19:30.470Z,94982.94
2023-01-23T02:22:07.413Z,94994.59
2023-01-23T02:24:43.940Z,94982.59
2023-01-23T02:27:13.222Z,94973.50
2023-01-23T02:29:43.250Z,94981.66
2023-01-23T02:32:11.342Z,94982.91
2023-01-23T02:34:39.260Z,94972.16
2023-01-23T02:37:09.323Z,94973.25
2023-01-23T02:39:37.549Z,94981.00
2023-01-23T02:42:07.297Z,94989.53
2023-01-23T02:44:36.572Z,94984.94
2023-01-23T02:47:08.049Z,94981.59
2023-01-23T02:49:35.996Z,94981.75
2023-01-23T02:52:04.479Z,94982.66
2023-01-23T02:54:32.819Z,94991.59
2023-01-23T02:57:00.694Z,94973.69
2023-01-23T02:59:46.253Z,94981.91
2023-01-23T03:02:15.828Z,94972.34
2023-01-23T03:04:43.754Z,94981.22
2023-01-23T03:07:11.648Z,94966.44
2023-01-23T03:09:39.667Z,94969.41
2023-01-23T03:12:09.120Z,94981.22
2023-01-23T03:14:37.098Z,94983.00
2023-01-23T03:17:04.994Z,94985.66
2023-01-23T03:19:34.364Z,94979.22
2023-01-23T03:22:02.239Z,94986.72
2023-01-23T03:24:30.109Z,94989.00
2023-01-23T03:26:58.002Z,94981.22
2023-01-23T03:29:40.868Z,94976.06
2023-01-23T03:32:09.491Z,94975.69
2023-01-23T03:34:39.215Z,94975.03
2023-01-23T03:37:08.636Z,94969.56
2023-01-23T03:39:54.375Z,94971.47
2023-01-23T03:42:23.039Z,94980.69
2023-01-23T03:44:52.848Z,94984.78
2023-01-23T03:47:21.851Z,94980.84
2023-01-23T03:49:51.131Z,94979.91
2023-01-23T03:52:19.281Z,94979.75
2023-01-23T03:54:47.249Z,94982.34
2023-01-23T03:57:15.300Z,94988.03
2023-01-23T03:59:43.204Z,94982.91
2023-01-23T04:02:11.173Z,94983.28
2023-01-23T04:04:39.071Z,94987.34
2023-01-23T04:07:09.042Z,94985.44
2023-01-23T04:09:36.983Z,94987.72
2023-01-23T04:12:05.320Z,94979.44
2023-01-23T04:14:37.335Z,94993.34
2023-01-23T04:17:06.288Z,94988.38
2023-01-23T04:19:34.879Z,95003.97
2023-01-23T04:22:02.966Z,95000.28
2023-01-23T04:24:32.463Z,94998.53
2023-01-23T04:27:00.313Z,95007.25
2023-01-23T04:29:28.290Z,95008.50
2023-01-23T04:31:56.155Z,95014.06
2023-01-23T04:34:24.078Z,95017.97
2023-01-23T04:36:52.021Z,95014.81
2023-01-23T04:39:19.984Z,95007.69
2023-01-23T04:41:49.474Z,95016.28
2023-01-23T04:44:23.418Z,95007.66
2023-01-23T04:46:53.046Z,95009.44
2023-01-23T04:49:21.550Z,95006.72
2023-01-23T04:51:50.224Z,94992.81
2023-01-23T04:54:18.842Z,95004.53
2023-01-23T04:56:47.903Z,95006.47
2023-01-23T04:59:17.871Z,95009.06
2023-01-23T05:01:46.200Z,95010.25
2023-01-23T05:04:14.804Z,95019.69
2023-01-23T05:06:42.983Z,95014.81
2023-01-23T05:09:11.623Z,95011.53
2023-01-23T05:11:39.596Z,95009.78
2023-01-23T05:14:07.572Z,95019.31
2023-01-23T05:16:36.854Z,95023.09
2023-01-23T05:19:04.743Z,95012.22
2023-01-23T05:21:32.693Z,95028.84
2023-01-23T05:24:00.718Z,95027.22
2023-01-23T05:26:28.673Z,95020.53
2023-01-23T05:28:56.593Z,95031.53
2023-01-23T05:31:24.599Z,95035.31
2023-01-23T05:33:53.981Z,95042.41
2023-01-23T05:36:22.031Z,95051.88
2023-01-23T05:38:50.096Z,95048.59
2023-01-23T05:41:18.143Z,95047.31
2023-01-23T05:43:46.212Z,95054.47
2023-01-23T05:46:14.131Z,95067.53
2023-01-23T05:48:42.021Z,95067.59
2023-01-23T05:51:11.655Z,95073.75
2023-01-23T05:53:39.601Z,95069.81
2023-01-23T05:56:08.494Z,95078.78
2023-01-23T05:58:36.497Z,95082.91
2023-01-23T06:01:05.181Z,95078.97
2023-01-23T06:03:33.756Z,95092.88
2023-01-23T06:06:02.994Z,95086.22
2023-01-23T06:08:32.589Z,95086.22
2023-01-23T06:11:01.329Z,95087.31
2023-01-23T06:13:29.792Z,95103.75
2023-01-23T06:15:58.607Z,95108.97
2023-01-23T06:18:26.954Z,95103.38
2023-01-23T06:20:59.399Z,95109.13
2023-01-23T06:23:28.033Z,95116.97
2023-01-23T06:26:00.867Z,95111.78
2023-01-23T06:28:28.887Z,95106.63
2023-01-23T06:30:56.969Z,95121.63
2023-01-23T06:33:25.026Z,95121.50
2023-01-23T06:35:58.835Z,95110.94
2023-01-23T06:38:27.673Z,95122.63
2023-01-23T06:40:57.549Z,95115.00
2023-01-23T06:43:26.243Z,95108.09
2023-01-23T06:45:54.246Z,95116.78
2023-01-23T06:48:22.339Z,95123.16
2023-01-23T06:50:53.874Z,95117.19
2023-01-23T06:53:21.831Z,95112.97
2023-01-23T06:55:49.860Z,95111.50
2023-01-23T06:58:19.623Z,95129.06
2023-01-23T07:00:48.434Z,95126.38
2023-01-23T07:03:17.137Z,95134.44
2023-01-23T07:05:45.426Z,95128.56
2023-01-23T07:08:13.718Z,95137.81
2023-01-23T07:10:42.046Z,95150.34
2023-01-23T07:13:12.083Z,95139.06
2023-01-23T07:15:41.689Z,95135.78
2023-01-23T07:18:11.247Z,95132.53
2023-01-23T07:20:39.259Z,95140.28
2023-01-23T07:23:07.395Z,95148.00
2023-01-23T07:25:35.781Z,95147.06
2023-01-23T07:28:03.985Z,95142.88
2023-01-23T07:30:32.233Z,95172.16
2023-01-23T07:33:01.716Z,95170.50
2023-01-23T07:35:29.942Z,95169.56
2023-01-23T07:37:58.115Z,95174.31
2023-01-23T07:40:26.835Z,95174.59
2023-01-23T07:42:54.787Z,95169.97
2023-01-23T07:45:22.739Z,95172.28
2023-01-23T07:47:50.985Z,95164.25
2023-01-23T07:50:20.877Z,95180.72
2023-01-23T07:52:49.198Z,95176.22
2023-01-23T07:55:17.292Z,95178.69
2023-01-23T07:57:45.329Z,95171.06
2023-01-23T08:00:16.790Z,95187.78
2023-01-23T08:02:44.946Z,95193.50
2023-01-23T08:05:13.003Z,95184.09
2023-01-23T08:07:42.760Z,95184.00
2023-01-23T08:10:12.422Z,95207.22
2023-01-23T08:12:40.568Z,95192.41
2023-01-23T08:15:09.903Z,95206.41
2023-01-23T08:17:37.935Z,95187.66
2023-01-23T08:20:06.881Z,95201.13
2023-01-23T08:22:34.860Z,95216.22
2023-01-23T08:25:04.995Z,95208.88
2023-01-23T08:27:33.144Z,95230.66
2023-01-23T08:30:01.303Z,95239.06
2023-01-23T08:32:30.130Z,95237.84
2023-01-23T08:34:59.912Z,95240.03
2023-01-23T08:37:28.016Z,95238.13
2023-01-23T08:39:56.218Z,95240.03
2023-01-23T08:42:26.023Z,95235.00
2023-01-23T08:44:54.282Z,95244.53
2023-01-23T08:47:22.247Z,95249.81
2023-01-23T08:49:50.643Z,95234.72
2023-01-23T08:52:19.047Z,95243.81
2023-01-23T08:54:47.200Z,95241.09
2023-01-23T08:57:15.143Z,95249.41
2023-01-23T08:59:44.603Z,95246.16
2023-01-23T09:02:13.797Z,95247.13
2023-01-23T09:04:42.040Z,95255.94
2023-01-23T09:07:10.175Z,95255.28
2023-01-23T09:09:38.227Z,95253.50
2023-01-23T09:12:06.398Z,95248.47
2023-01-23T09:14:34.449Z,95249.69
2023-01-23T09:17:03.820Z,95245.09
2023-01-23T09:19:32.090Z,95246.31
2023-01-23T09:22:00.222Z,95262.50
2023-01-23T09:24:28.239Z,95259.34
2023-01-23T09:26:56.096Z,95255.94
2023-01-23T09:29:24.104Z,95255.16
2023-01-23T09:31:52.224Z,95259.75
2023-01-23T09:34:22.095Z,95260.88
2023-01-23T09:36:50.173Z,95241.13
2023-01-23T09:39:18.263Z,95238.53
2023-01-23T09:41:47.432Z,95239.75
2023-01-23T09:44:21.460Z,95238.41
2023-01-23T09:46:52.395Z,95240.97
2023-01-23T09:49:28.504Z,95239.47
2023-01-23T09:52:00.163Z,95223.16
2023-01-23T09:54:38.545Z,95204.91
2023-01-23T09:57:14.644Z,95238.66
2023-01-23T09:59:59.170Z,95238.25
2023-01-23T10:02:29.981Z,95252.00
2023-01-23T10:05:02.972Z,95255.00
2023-01-23T10:07:49.571Z,95251.72
2023-01-23T10:10:45.109Z,95240.97
2023-01-23T10:13:19.920Z,95240.41
2023-01-23T10:16:10.340Z,95244.63
2023-01-23T10:18:45.796Z,95243.16
2023-01-23T10:21:26.517Z,95234.72
2023-01-23T10:24:04.426Z,95228.72
2023-01-23T10:26:37.832Z,95228.16
2023-01-23T10:29:17.655Z,95219.19
2023-01-23T10:31:51.249Z,95229.69
2023-01-23T10:34:26.197Z,95223.25
2023-01-23T10:37:08.798Z,95231.53
2023-01-23T10:39:54.127Z,95234.41
2023-01-23T10:42:25.552Z,95238.88
2023-01-23T10:44:53.978Z,95233.00
2023-01-23T10:47:32.784Z,95219.72
2023-01-23T10:50:02.159Z,95224.22
2023-01-23T10:52:35.069Z,95222.84
2023-01-23T10:55:03.660Z,95219.69
2023-01-23T10:57:39.379Z,95206.38
2023-01-23T11:00:21.700Z,95223.78
2023-01-23T11:02:49.952Z,95222.41
2023-01-23T11:05:51.147Z,95225.81
2023-01-23T11:08:27.751Z,95233.28
2023-01-23T11:11:02.456Z,95220.91
2023-01-23T11:13:32.197Z,95215.88
2023-01-23T11:16:00.634Z,95218.44
2023-01-23T11:18:34.248Z,95221.31
2023-01-23T11:21:03.314Z,95227.88
2023-01-23T11:23:35.961Z,95236.72
2023-01-23T11:26:04.455Z,95222.69
2023-01-23T11:28:35.603Z,95230.03
2023-01-23T11:31:14.530Z,95222.41
2023-01-23T11:33:53.318Z,95228.13
2023-01-23T11:36:38.257Z,95227.56
2023-01-23T11:39:23.248Z,95220.38
2023-01-23T11:42:06.628Z,95228.53
2023-01-23T11:44:45.648Z,95218.09
2023-01-23T11:47:37.349Z,95218.72
2023-01-23T11:50:50.011Z,95232.22
2023-01-23T11:53:41.446Z,95215.59
2023-01-23T11:56:32.891Z,95221.72
2023-01-23T11:59:25.638Z,95220.38
2023-01-23T12:02:23.802Z,95188.97
2023-01-23T12:05:07.146Z,95212.06
2023-01-23T12:07:43.811Z,95196.56
2023-01-23T12:10:24.109Z,95204.88
2023-01-23T12:13:08.026Z,95191.81
2023-01-23T12:15:44.941Z,95195.63
2023-01-23T12:18:26.995Z,95202.00
2023-01-23T12:21:04.542Z,95196.97
2023-01-23T12:23:49.267Z,95205.00
2023-01-23T12:26:22.380Z,95212.63
2023-01-23T12:29:16.377Z,95214.53
2023-01-23T12:32:12.320Z,95214.78
2023-01-23T12:34:57.102Z,95206.25
2023-01-23T12:37:48.742Z,95214.53
2023-01-23T12:40:24.261Z,95212.94
2023-01-23T12:43:01.274Z,95218.09
2023-01-23T12:45:34.058Z,95210.75
2023-01-23T12:48:12.903Z,95211.56
2023-01-23T12:50:47.735Z,95207.19
2023-01-23T12:53:18.287Z,95206.13
2023-01-23T12:55:57.068Z,95208.44
2023-01-23T12:58:29.296Z,95208.16
2023-01-23T13:01:10.171Z,95204.22
2023-01-23T13:03:57.475Z,95205.84
2023-01-23T13:06:38.968Z,95217.13
2023-01-23T13:09:18.553Z,95196.97
2023-01-23T13:11:57.437Z,95216.72
2023-01-23T13:15:00.538Z,95211.91
2023-01-23T13:17:38.446Z,95207.16
2023-01-23T13:20:46.733Z,95224.97
2023-01-23T13:23:24.141Z,95218.44
2023-01-23T13:26:12.291Z,95219.94
2023-01-23T13:28:45.643Z,95219.25
2023-01-23T13:31:28.759Z,95226.19
2023-01-23T13:34:10.217Z,95223.72
2023-01-23T13:36:43.718Z,95210.94
2023-01-23T13:39:24.773Z,95216.50
2023-01-23T13:42:09.219Z,95220.72
2023-01-23T13:44:42.104Z,95223.72
2023-01-23T14:20:29.176Z,95238.88
2023-01-23T14:22:57.733Z,95238.22
2023-01-23T14:25:27.061Z,95244.19
2023-01-23T14:28:06.078Z,95246.25
2023-01-23T14:30:34.236Z,95252.38
2023-01-23T14:33:02.424Z,95248.41
2023-01-23T14:35:32.783Z,95261.69
2023-01-23T14:38:03.590Z,95255.44
2023-01-23T14:40:46.634Z,95259.47
2023-01-23T14:43:23.056Z,95242.47
2023-01-23T14:45:58.298Z,95261.34
2023-01-23T14:48:26.502Z,95258.34
2023-01-23T14:51:03.277Z,95260.13
2023-01-23T14:53:31.338Z,95257.53
2023-01-23T14:56:02.072Z,95267.16
2023-01-23T14:58:33.126Z,95261.47
2023-01-23T15:01:03.714Z,95268.84
2023-01-23T15:04:03.191Z,95265.72
2023-01-23T15:06:34.207Z,95256.31
2023-01-23T15:09:14.656Z,95265.75
2023-01-23T15:11:42.743Z,95267.94
2023-01-23T15:14:24.721Z,95271.22
2023-01-23T15:16:59.808Z,95272.53
2023-01-23T15:19:28.561Z,95272.00
2023-01-23T15:22:08.444Z,95287.22
2023-01-23T15:24:36.580Z,95288.16
2023-01-23T15:27:25.135Z,95291.69
2023-01-23T15:30:31.398Z,95289.44
2023-01-23T15:33:06.001Z,95300.13
2023-01-23T15:35:35.498Z,95302.34
2023-01-23T15:38:07.780Z,95304.22
2023-01-23T15:40:38.329Z,95310.06
2023-01-23T15:43:11.284Z,95310.03
2023-01-23T15:45:40.768Z,95315.03
2023-01-23T15:48:08.750Z,95311.53
2023-01-23T15:50:37.310Z,95313.94
2023-01-23T15:53:05.286Z,95327.94
2023-01-23T15:55:33.294Z,95331.47
2023-01-23T15:58:02.447Z,95330.66
2023-01-23T16:00:31.304Z,95333.81
2023-01-23T16:03:00.964Z,95346.03
2023-01-23T16:05:32.269Z,95334.75
2023-01-23T16:08:02.738Z,95338.03
2023-01-23T16:10:32.809Z,95345.09
2023-01-23T16:13:00.726Z,95345.25
2023-01-23T16:15:30.524Z,95344.31
2023-01-23T16:18:00.856Z,95352.31
2023-01-23T16:20:31.455Z,95343.75
2023-01-23T16:23:11.785Z,95345.16
2023-01-23T16:25:45.441Z,95361.66
2023-01-23T16:28:15.566Z,95358.63
2023-01-23T16:30:43.889Z,95362.53
2023-01-23T16:33:24.394Z,95365.53
2023-01-23T16:35:52.960Z,95368.06
2023-01-23T16:38:23.934Z,95364.03
2023-01-23T16:40:53.684Z,95371.78
2023-01-23T16:43:22.856Z,95366.03
2023-01-23T16:45:54.249Z,95371.63
2023-01-23T16:48:27.467Z,95374.66
2023-01-23T16:51:00.249Z,95373.91
2023-01-23T16:53:31.169Z,95369.53
2023-01-23T16:56:01.900Z,95363.94
2023-01-23T16:58:33.142Z,95374.50
2023-01-23T17:01:04.876Z,95364.44
2023-01-23T17:03:37.648Z,95385.53
2023-01-23T17:06:06.549Z,95370.84
2023-01-23T17:08:35.515Z,95355.09
2023-01-23T17:11:06.248Z,95354.88
2023-01-23T17:13:35.980Z,95376.06
2023-01-23T17:16:12.786Z,95380.66
2023-01-23T17:18:51.833Z,95387.22
2023-01-23T17:21:23.847Z,95383.00
2023-01-23T17:23:52.185Z,95377.28
2023-01-23T17:26:22.057Z,95373.47
2023-01-23T17:28:50.384Z,95370.31
2023-01-23T17:31:22.845Z,95379.69
2023-01-23T17:33:53.911Z,95373.03
2023-01-23T17:36:22.050Z,95382.84
2023-01-23T17:38:58.537Z,95380.41
2023-01-23T17:44:22.371Z,95385.25
2023-01-23T17:46:54.693Z,95382.03
2023-01-23T17:49:32.715Z,95403.47
2023-01-23T17:52:02.380Z,95392.19
2023-01-23T17:54:30.450Z,95397.81
2023-01-23T17:56:58.453Z,95405.34
2023-01-23T17:59:26.761Z,95403.03
2023-01-23T18:01:55.696Z,95408.19
2023-01-23T18:04:24.661Z,95401.38
2023-01-23T18:06:54.763Z,95390.84
2023-01-23T18:09:22.981Z,95393.16
2023-01-23T18:11:54.687Z,95386.13
2023-01-23T18:14:39.579Z,95403.03
2023-01-23T18:17:16.730Z,95404.16
2023-01-23T18:19:46.787Z,95404.72
2023-01-23T18:22:17.396Z,95411.66
2023-01-23T18:24:47.554Z,95402.50
2023-01-23T18:27:22.892Z,95401.50
2023-01-23T18:30:05.516Z,95393.41
2023-01-23T18:32:50.171Z,95409.25
2023-01-23T18:35:30.195Z,95403.97
2023-01-23T18:38:08.781Z,95404.88
2023-01-23T18:40:49.338Z,95419.31
2023-01-23T18:43:31.594Z,95415.47
2023-01-23T18:46:00.127Z,95415.06
2023-01-23T18:48:29.578Z,95414.41
2023-01-23T18:51:09.071Z,95406.31
2023-01-23T18:53:52.497Z,95411.13
2023-01-23T18:56:29.723Z,95391.69
2023-01-23T18:59:12.123Z,95398.25
2023-01-23T19:01:50.360Z,95401.31
2023-01-23T19:04:26.333Z,95430.69
2023-01-23T19:06:57.744Z,95420.84
2023-01-23T19:13:42.306Z,95425.28
2023-01-23T19:16:15.402Z,95416.03
2023-01-23T19:18:47.708Z,95428.00
2023-01-23T19:21:19.947Z,95419.69
2023-01-23T19:23:57.192Z,95423.06
2023-01-23T19:26:27.860Z,95411.47
2023-01-23T19:28:59.930Z,95442.06
2023-01-23T19:31:31.908Z,95444.38
2023-01-23T19:34:00.932Z,95436.78
2023-01-23T19:36:30.908Z,95414.56
2023-01-23T19:39:03.125Z,95455.41
2023-01-23T19:41:40.177Z,95443.13
2023-01-23T19:44:13.859Z,95437.03
2023-01-23T19:46:42.662Z,95457.03
2023-01-23T19:49:11.210Z,95444.47
2023-01-23T19:51:41.342Z,95442.25
2023-01-23T19:54:12.883Z,95450.81
2023-01-23T19:56:42.448Z,95446.03
2023-01-23T19:59:12.070Z,95445.41
2023-01-23T20:01:43.688Z,95453.28
2023-01-23T20:04:16.066Z,95448.94
2023-01-23T20:06:46.027Z,95430.34
2023-01-23T20:09:15.661Z,95417.59
2023-01-23T20:11:44.147Z,95452.50
2023-01-23T20:14:13.717Z,95438.75
2023-01-23T20:16:43.385Z,95433.75
2023-01-23T20:19:14.872Z,95429.44
2023-01-23T20:21:43.013Z,95433.75
2023-01-23T20:24:11.263Z,95449.00
2023-01-23T20:26:39.670Z,95436.13
2023-01-23T20:29:12.307Z,95445.72
2023-01-23T20:31:41.712Z,95459.53
2023-01-23T20:34:09.973Z,95438.94
2023-01-23T20:36:39.673Z,95461.66
2023-01-23T20:39:07.673Z,95451.00
2023-01-23T20:41:35.721Z,95471.63
2023-01-23T20:44:03.840Z,95472.31
2023-01-23T20:46:33.271Z,95471.63
2023-01-23T20:49:02.884Z,95483.19
2023-01-23T20:51:31.494Z,95482.03
2023-01-23T20:53:58.677Z,95475.59
2023-01-23T20:56:27.940Z,95463.56
2023-01-23T20:59:14.556Z,95486.72
2023-01-23T21:02:01.237Z,95489.28
2023-01-23T21:04:32.715Z,95469.50
2023-01-23T21:07:01.401Z,95486.72
2023-01-23T21:09:30.318Z,95491.97
2023-01-23T21:11:58.484Z,95483.13
2023-01-23T21:14:26.549Z,95486.72
2023-01-23T21:16:54.539Z,95484.72
2023-01-23T21:19:23.309Z,95484.72
2023-01-23T21:21:52.701Z,95488.28
2023-01-23T21:24:20.811Z,95495.16
2023-01-23T21:26:48.781Z,95501.84
2023-01-23T21:29:16.785Z,95497.75
2023-01-23T21:31:44.961Z,95484.72
2023-01-23T21:34:15.065Z,95495.41
2023-01-23T21:36:44.120Z,95478.19
2023-01-23T21:39:15.257Z,95498.00
2023-01-23T21:41:43.352Z,95463.56
2023-01-23T21:44:11.572Z,95480.88
2023-01-23T21:46:39.926Z,95491.06
2023-01-23T21:49:08.115Z,95486.38
2023-01-23T21:51:36.045Z,95487.22
2023-01-23T21:54:04.134Z,95485.09
2023-01-23T21:56:34.799Z,95478.53
2023-01-23T21:59:02.859Z,95473.38
2023-01-23T22:01:33.727Z,95482.97
2023-01-23T22:04:04.124Z,95468.09
2023-01-23T22:06:32.510Z,95460.63
2023-01-23T22:09:00.685Z,95476.19
2023-01-23T22:11:28.926Z,95470.56
2023-01-23T22:13:58.827Z,95474.91
2023-01-23T22:16:46.490Z,95455.22
2023-01-23T22:19:15.705Z,95469.97
2023-01-23T22:21:46.427Z,95476.44
2023-01-23T22:24:15.058Z,95469.97
2023-01-23T22:26:43.237Z,95469.38
2023-01-23T22:29:13.970Z,95473.13
2023-01-23T22:31:42.748Z,95475.50
2023-01-23T22:34:11.494Z,95454.66
2023-01-23T22:36:39.575Z,95471.50
2023-01-23T22:39:07.655Z,95463.91
2023-01-23T22:41:35.615Z,95467.88
2023-01-23T22:44:03.655Z,95469.97
2023-01-23T22:46:33.522Z,95465.28
2023-01-23T22:49:01.551Z,95460.72
2023-01-23T22:51:30.344Z,95463.28
2023-01-23T22:53:59.377Z,95465.19
2023-01-23T22:56:29.676Z,95464.47
2023-01-23T22:58:58.163Z,95467.28
2023-01-23T23:01:28.133Z,95473.50
2023-01-23T23:03:59.564Z,95459.91
2023-01-23T23:06:28.180Z,95451.59
2023-01-23T23:08:56.854Z,95432.94
2023-01-23T23:11:26.383Z,95462.34
2023-01-23T23:13:55.184Z,95458.97
2023-01-23T23:16:25.030Z,95454.63
2023-01-23T23:18:55.641Z,95464.59
2023-01-23T23:21:28.255Z,95461.09
2023-01-23T23:23:58.838Z,95468.22
2023-01-23T23:26:28.572Z,95468.81
2023-01-23T23:28:56.817Z,95477.25
2023-01-23T23:31:27.668Z,95480.75
2023-01-23T23:33:55.917Z,95486.38
2023-01-23T23:36:25.719Z,95480.63
2023-01-23T23:38:56.871Z,95477.50
2023-01-23T23:41:25.028Z,95467.19
2023-01-23T23:43:53.154Z,95466.13
2023-01-23T23:46:21.840Z,95481.81
2023-01-23T23:48:49.906Z,95485.44
2023-01-23T23:51:20.268Z,95486.03
2023-01-23T23:53:50.669Z,95486.63
2023-01-23T23:56:22.375Z,95477.97
2023-01-23T23:58:50.926Z,95492.25
